METAR Data
IDs: Format: Raw Decoded Include TAF

Data at: 0447 UTC 21 Sep 2018

K0CO 210447Z AUTO 31015KT 10SM CLR 00/M08 A3055 RMK AO2
K0CO 210423Z AUTO 31016KT 10SM CLR 00/M08 A3053 RMK AO2
K0CO 210405Z AUTO 31013G18KT 10SM CLR 00/M07 A3053 RMK AO2
K0CO 210347Z AUTO 31012KT 10SM CLR 01/M07 A3053 RMK AO2
K0CO 210323Z AUTO 32014G19KT 10SM CLR 01/M07 A3053 RMK AO2
K0CO 210306Z AUTO 32012G17KT 10SM CLR 01/M07 A3052 RMK AO2
K0CO 210248Z AUTO 32014G22KT 10SM CLR 01/M07 A3051 RMK AO2
K0CO 210242Z AUTO 31015G22KT 10SM CLR 01/M07 A3050 RMK AO2
K0CO 210224Z AUTO 31017G25KT 10SM CLR 02/M06 A3049 RMK AO2
K0CO 210206Z AUTO 32020G26KT 10SM CLR 02/M06 A3048 RMK AO2
K0CO 210147Z AUTO 32020G26KT 10SM CLR 02/M06 A3047 RMK AO2
K0CO 210124Z AUTO 31020G28KT 10SM CLR 03/M05 A3045 RMK AO2
K0CO 210106Z AUTO 32024G30KT 10SM CLR 03/M05 A3045 RMK AO2
K0CO 210043Z AUTO 31021G29KT 10SM CLR 05/M03 A3044 RMK AO2
K0CO 210025Z AUTO 35014G28KT 281V061 10SM CLR 05/M03 A3043 RMK AO2
K0CO 202354Z AUTO 32020G31KT 10SM SCT055 06/M02 A3041 RMK AO2
K0CO 202348Z AUTO 34014G28KT 10SM SCT055 06/M02 A3041 RMK AO2
K0CO 202342Z AUTO 33021G31KT 10SM SCT055 SCT075 06/M02 A3041 RMK AO2
K0CO 202324Z AUTO 31030G41KT 10SM BKN055 BKN075 07/M01 A3038 RMK AO2
K0CO 202306Z AUTO 10SM BKN055 BKN075 07/M01 A3039 RMK AO2 LTG DSNT NW
K0CO 202247Z AUTO 28035G45KT 10SM BKN055 BKN075 OVC085 07/M01 A3036 RMK AO2
K0CO 202223Z AUTO 29037G45KT 10SM BKN060 BKN065 BKN075 07/M01 A3036 RMK AO2
K0CO 202205Z AUTO 29033G42KT 10SM BKN050 BKN070 06/M02 A3036 RMK AO2
K0CO 202148Z AUTO 29032G46KT 10SM BKN050 BKN065 06/M02 A3036 RMK AO2 LTG DSNT NW
K0CO 202142Z AUTO 29038KT 10SM SCT060 07/M01 A3033 RMK AO2 LTG DSNT NW
K0CO 202124Z AUTO 31029G39KT 10SM SCT048 SCT060 06/M02 A3036 RMK AO2
K0CO 202106Z AUTO 28033G43KT 10SM SCT047 06/M02 A3033 RMK AO2
K0CO 202047Z AUTO 32031G38KT 10SM SCT047 07/M01 A3034 RMK AO2 LTG DSNT N
K0CO 202024Z AUTO 29029G37KT 10SM SCT038 SCT047 SCT060 06/M02 A3033 RMK AO2
K0CO 202006Z AUTO 31030G44KT 10SM CLR 05/M03 A3034 RMK AO2
K0CO 201947Z AUTO 31019G27KT 171V341 10SM SCT014 SCT027 SCT041 04/M04 A3035 RMK AO2
K0CO 201923Z AUTO 30026G35KT 10SM SCT039 SCT050 BKN060 03/M05 A3034 RMK AO2
K0CO 201905Z AUTO 31019G28KT 10SM SCT032 SCT046 BKN050 04/M04 A3034 RMK AO2
K0CO 201847Z AUTO 29032G43KT 10SM BKN050 BKN060 05/M03 A3033 RMK AO2
K0CO 201823Z AUTO 30025G47KT 10SM SCT050 SCT065 05/M03 A3034 RMK AO2
K0CO 201806Z AUTO 29033G46KT 10SM SCT045 SCT050 04/M04 A3032 RMK AO2
K0CO 201748Z AUTO 29041G52KT 10SM SCT038 SCT045 SCT060 05/M03 A3031 RMK AO2
K0CO 201724Z AUTO 30026G39KT 10SM SCT035 03/M05 A3034 RMK AO2
K0CO 201706Z AUTO 31028G44KT 10SM SCT031 SCT039 04/M04 A3033 RMK AO2
K0CO 201648Z AUTO 30025G31KT 10SM SCT027 SCT032 SCT038 03/M05 A3034 RMK AO2
K0CO 201624Z AUTO 30023G32KT 10SM SCT027 SCT037 02/M06 A3033 RMK AO2
K0CO 201606Z AUTO 30030G37KT 10SM SCT027 SCT035 02/M06 A3032 RMK AO2
K0CO 201548Z AUTO 30028G34KT 10SM CLR 02/M06 A3032 RMK AO2
K0CO 201524Z AUTO 30024G32KT 10SM CLR 02/M06 A3031 RMK AO2
K0CO 201506Z AUTO 30025G36KT 10SM CLR 02/M06 A3032 RMK AO2
K0CO 201447Z AUTO 31025G35KT 10SM SCT120 02/M06 A3031 RMK AO2
K0CO 201423Z AUTO 30027G32KT 10SM CLR 02/M06 A3031 RMK AO2
K0CO 201405Z AUTO 29021G36KT 10SM SCT110 02/M06 A3030 RMK AO2
K0CO 201348Z AUTO 29020G28KT 10SM SCT110 02/M06 A3030 RMK AO2
K0CO 201324Z AUTO 30022G33KT 10SM OVC110 02/M06 A3029 RMK AO2
K0CO 201306Z AUTO 30026G33KT 10SM OVC100 02/M06 A3028 RMK AO2
K0CO 201246Z AUTO 30020G28KT 10SM SCT021 SCT039 OVC110 02/M06 A3028 RMK AO2
K0CO 201223Z AUTO 31020G28KT 10SM SCT021 BKN090 OVC110 02/M06 A3029 RMK AO2
K0CO 201206Z AUTO 30021G29KT 10SM OVC090 02/M06 A3029 RMK AO2
K0CO 201147Z AUTO 29024G31KT 10SM SCT075 OVC090 02/M06 A3028 RMK AO2
K0CO 201124Z AUTO 30022G31KT 10SM BKN065 OVC085 02/M06 A3028 RMK AO2
K0CO 201106Z AUTO 30022G28KT 10SM SCT065 OVC085 02/M06 A3027 RMK AO2
K0CO 201048Z AUTO 30023KT 10SM SCT050 SCT065 OVC085 02/M06 A3028 RMK AO2
K0CO 201042Z AUTO 30024G29KT 10SM SCT031 SCT043 OVC085 02/M06 A3028 RMK AO2
K0CO 201024Z AUTO 29019G26KT 10SM SCT022 BKN035 OVC050 02/M06 A3030 RMK AO2
K0CO 201006Z AUTO 29025G36KT 10SM SCT023 BKN032 OVC043 02/M06 A3030 RMK AO2
K0CO 200948Z AUTO 28032G40KT 10SM BKN035 BKN044 OVC080 03/M05 A3030 RMK AO2
K0CO 200942Z AUTO 29032G40KT 10SM SCT037 BKN049 OVC080 03/M05 A3030 RMK AO2
K0CO 200924Z AUTO 28026G32KT 10SM SCT046 SCT050 OVC080 03/M05 A3031 RMK AO2
K0CO 200906Z AUTO 28027G34KT 10SM SCT038 BKN043 OVC049 03/M05 A3031 RMK AO2
K0CO 200848Z AUTO 30026G38KT 10SM SCT036 BKN041 OVC075 03/M05 A3033 RMK AO2 LTG DSNT N
K0CO 200842Z AUTO 29032G38KT 10SM SCT041 SCT047 OVC075 03/M05 A3032 RMK AO2 LTG DSNT N
K0CO 200824Z AUTO 29028G35KT 10SM SCT047 SCT050 OVC075 03/M04 A3031 RMK AO2 LTG DSNT N
K0CO 200806Z AUTO 29018G30KT 10SM SCT037 SCT045 OVC050 03/M05 A3033 RMK AO2
K0CO 200742Z AUTO 28021G30KT 10SM SCT042 OVC050 04/M04 A3033 RMK AO2 LTG DSNT N
K0CO 200724Z AUTO 28019G32KT 10SM SCT038 BKN043 OVC050 03/M05 A3034 RMK AO2 LTG DSNT N
K0CO 200706Z AUTO 27019G25KT 10SM SCT030 BKN039 OVC055 01/M07 A3036 RMK AO2 LTG DSNT N
K0CO 200642Z AUTO 28024G30KT 10SM SCT022 BKN035 OVC042 01/M06 A3035 RMK AO2 LTG DSNT N
K0CO 200624Z AUTO 28019KT 10SM BKN022 BKN030 OVC036 01/M07 A3036 RMK AO2
K0CO 200606Z AUTO 27020KT 7SM -DZ BKN018 OVC024 01/M07 A3037 RMK AO2 LTG DSNT NW
K0CO 200542Z AUTO 27018G23KT 7SM DZ BKN020 OVC026 02/M06 A3038 RMK AO2
K0CO 200524Z AUTO 29016KT 10SM DZ BKN020 OVC027 02/M06 A3038 RMK AO2
K0CO 200506Z AUTO 27011G17KT 10SM SCT020 BKN025 OVC033 02/M06 A3038 RMK AO2 LTG DSNT NE
K0CO 200447Z AUTO 26017G22KT 10SM RA BKN020 BKN037 OVC060 02/M06 A3039 RMK AO2
K0CO 200424Z AUTO 24011G17KT 10SM SCT027 SCT033 OVC055 02/M06 A3039 RMK AO2
K0CO 200406Z AUTO 25013G20KT 10SM -DZ SCT021 BKN027 OVC035 02/M06 A3039 RMK AO2
K0CO 200342Z AUTO 25008G20KT 10SM DZ BKN021 BKN028 OVC033 03/M05 A3041 RMK AO2 LTG DSNT NE
K0CO 200324Z AUTO 23005G16KT 10SM -DZ BKN021 OVC033 03/M05 A3041 RMK AO2
K0CO 200306Z AUTO 24011G21KT 10SM DZ BKN021 BKN031 OVC040 03/M05 A3041 RMK AO2
K0CO 200242Z AUTO 25019G23KT 10SM SCT041 SCT049 OVC060 03/M05 A3040 RMK AO2
K0CO 200224Z AUTO 24008KT 10SM SCT003 BKN060 OVC070 02/M06 A3040 RMK AO2
K0CO 200206Z AUTO 25005G16KT 1/2SM HZ OVC003 02/M06 A3041 RMK AO2 VIS 1/4V5 LTG DSNT S
K0CO 200147Z AUTO 27011G20KT 231V291 M1/4SM HZ OVC001 02/M06 A3041 RMK AO2 P0001
K0CO 200123Z AUTO 29009G20KT M1/4SM HZ OVC001 02/M06 A3041 RMK AO2 LTG DSNT NE
K0CO 200105Z AUTO 29008KT 221V311 M1/4SM HZ OVC001 02/M06 A3041 RMK AO2
K0CO 200043Z AUTO 28009G16KT M1/4SM HZ OVC001 02/M06 A3042 RMK AO2 P0001 LTG DSNT NE AND E
K0CO 200025Z AUTO 27010KT 1/2SM -RA OVC001 02/M06 A3043 RMK AO2
K0CO 192354Z AUTO 30009KT 221V311 1/2SM DZ BKN001 OVC006 02/M05 A3044 RMK AO2 P0002
K0CO 192342Z AUTO 28013G16KT 1/2SM TSRA BKN001 BKN008 OVC012 02/M06 A3044 RMK AO2 VIS M1/4V5 P0001 LTG DSNT N AND SE
K0CO 192324Z AUTO 31009KT M1/4SM HZ OVC001 02/M06 A3044 RMK AO2 P0001 LTG DSNT E
K0CO 192306Z AUTO 31009KT 1/4SM -RA BKN001 OVC008 02/M06 A3045 RMK AO2 LTG DSNT N AND SE
K0CO 192247Z AUTO 32007KT 261V341 10SM -RA SCT020 BKN028 OVC037 03/M05 A3045 RMK AO2 LTG DSNT SE AND S
K0CO 192223Z AUTO 32009KT 271V341 10SM TSRA SCT017 SCT022 OVC029 05/M03 A3045 RMK AO2 LTG DSNT SE
K0CO 192206Z AUTO 24005G20KT 10SM -RA SCT014 BKN018 OVC033 05/M03 A3046 RMK AO2 LTG DSNT NE AND E
K0CO 192147Z AUTO 27013G23KT 5SM RA SCT014 BKN024 OVC036 05/M03 A3045 RMK AO2
K0CO 192141Z AUTO 28015G23KT 7SM +RA SCT014 SCT021 OVC034 06/M02 A3046 RMK AO2
K0CO 192124Z AUTO 28009G24KT 181V311 7SM DZ SCT021 BKN037 OVC060 07/M02 A3046 RMK AO2
K0CO 192106Z AUTO 09007KT 10SM SCT039 BKN060 OVC070 10/00 A3045 RMK AO2
K0CO 192048Z AUTO 10SM SCT035 BKN060 BKN080 10/01 A3045 RMK AO2
K0CO 192024Z AUTO 11013KT 10SM SCT035 BKN070 OVC085 10/01 A3044 RMK AO2
K0CO 192006Z AUTO 14011G24KT 10SM BKN080 11/02 A3046 RMK AO2
K0CO 191947Z AUTO 27010G17KT 241V301 10SM BKN080 12/03 A3046 RMK AO2
K0CO 191924Z AUTO 25010G15KT 141V271 10SM SCT080 12/02 A3047 RMK AO2
K0CO 191906Z AUTO 18006G16KT 10SM CLR 11/01 A3049 RMK AO2
K0CO 191848Z AUTO 21008G18KT 161V241 10SM CLR 11/02 A3050 RMK AO2 LTG DSNT N
K0CO 191824Z AUTO 23006KT 201V291 10SM SCT070 11/02 A3050 RMK AO2
K0CO 191806Z AUTO 27007KT 10SM SCT070 SCT085 12/02 A3050 RMK AO2
K0CO 191748Z AUTO 31006KT 10SM TS CLR 11/02 A3051 RMK AO2 LTG DSNT N
K0CO 191724Z AUTO 28004KT 10SM CLR 11/02 A3051 RMK AO2
K0CO 191706Z AUTO 24007KT 231V291 10SM CLR 11/02 A3051 RMK AO2